Latest Coastal Weather Observations for Cooktown

IDQ60701

Issued at 2:31 pm EST Thursday 3 September 2015 (issued every 10 minutes, with the page automatically refreshed every 10 minutes)

About coastal observations | Map of coastal stations | Coastal observations for QLD | Marine services | Other Formats
Station Details ID: 031209 Name: COOKTOWN AIRPORT Lat: -15.45 Lon: 145.19 Height: 4.8 m
Data from the previous 72 hours. | See also: Recent months at Cooktown
Date/Time
EST
Temp

°C
Wind Pressure Rain
since 9am
mm
Weather Cloud Vis
km
Sea
Height
m
Swell
Dir
 
Speed
knots
Gust
knots
hPa Trend Height
m
Period
s
Dir
03/02:00pm 28.1 E 11 15 1015.8 - 0.0 - - 10 - - - -
03/01:30pm 28.0 E 11 14 1016.1 - 0.0 - - 10 - - - -
03/01:00pm 27.6 E 11 15 1016.5 - 0.0 - - 10 - - - -
03/12:30pm 28.3 E 9 14 1016.9 - 0.0 - - 10 - - - -
03/12:00pm 27.7 E 9 18 1017.4 - 0.0 - - 10 - - - -
03/11:30am 28.1 E 8 11 1018.1 - 0.0 - - 10 - - - -
03/11:00am 27.3 E 7 10 1018.6 - 0.0 - - 10 - - - -
03/10:30am 27.0 E 8 12 1018.9 - 0.0 - Partly cloudy 10 - - - -
03/10:00am 26.4 ENE 3 7 1019.1 - 0.0 - Partly cloudy 10 - - - -
03/09:30am 26.1 E 6 9 1019.1 - 0.0 - - 10 - - - -
03/09:00am 23.6 WSW 1 4 1018.8 R 0.0 Shallow fog Mostly clear 40 - - - -
03/08:30am 20.9 W 3 4 1018.7 - 0.0 - Partly cloudy 10 - - - -
03/08:00am 19.8 WNW 3 4 1018.6 - 0.0 - Partly cloudy 10 - - - -
03/07:46am 19.1 W 3 4 1018.4 - 0.0 - Partly cloudy 10 - - - -
03/07:45am 19.0 W 3 4 1018.4 - 0.0 - Partly cloudy 10 - - - -
03/07:30am 18.0 WNW 2 4 1018.3 - 0.0 - Partly cloudy 1 - - - -
03/07:00am 17.3 W 3 5 1017.9 - 0.0 - Partly cloudy 0.3 - - - -
03/06:30am 17.0 WNW 4 5 1017.6 - 0.0 - Cloudy 0.9 - - - -
03/06:00am 16.8 W 2 5 1017.1 - 0.0 - Cloudy 0.3 - - - -
03/05:30am 16.6 NW 2 4 1016.8 - 0.0 - Cloudy 0.1 - - - -
03/05:00am 16.8 NW 3 4 1016.6 - 0.0 - Cloudy 0.3 - - - -
03/04:30am 16.4 WNW 3 4 1016.2 - 0.0 - Cloudy 0.8 - - - -
03/04:26am 16.7 WNW 3 4 1016.3 - 0.0 - Cloudy 4 - - - -
03/04:00am 16.5 CALM 0 4 1016.2 - 0.0 - Partly cloudy 10 - - - -
03/03:48am 16.5 CALM 0 0 1016.2 - 0.0 - Partly cloudy 10 - - - -
03/03:30am 16.6 CALM 0 0 1016.3 - 0.0 - - 10 - - - -
03/03:00am 17.0 W 3 5 1016.2 - 0.0 - - 10 - - - -
03/02:30am 16.8 NW 3 4 1016.4 - 0.0 - Partly cloudy 10 - - - -
03/02:00am 17.3 WNW 3 3 1016.4 - 0.0 - - 10 - - - -
03/01:30am 17.4 WNW 3 4 1016.6 - 0.0 - Partly cloudy 10 - - - -
03/01:00am 17.8 CALM 0 0 1016.7 - 0.0 - Partly cloudy 10 - - - -
03/12:30am 18.2 CALM 0 0 1016.9 - 0.0 - - 10 - - - -
03/12:00am 18.8 WNW 3 4 1017.0 - 0.0 - Mostly clear 10 - - - -
 
Date/Time
EST
Temp

°C
Wind Pressure Rain
since 9am
mm
Weather Cloud Vis
km
Sea
Height
m
Swell
Dir
 
Speed
knots
Gust
knots
hPa Trend Height
m
Period
s
Dir
02/11:30pm 19.4 WNW 3 5 1017.0 - 0.0 - Partly cloudy 10 - - - -
02/11:00pm 19.2 CALM 0 0 1017.1 - 0.0 - Partly cloudy 10 - - - -
02/10:30pm 19.6 CALM 0 0 1017.0 - 0.0 - Partly cloudy 10 - - - -
02/10:00pm 19.7 WNW 3 4 1016.9 - 0.0 - Partly cloudy 10 - - - -
02/09:30pm 20.5 CALM 0 0 1016.8 - 0.0 - Partly cloudy 10 - - - -
02/09:00pm 20.9 CALM 0 0 1016.6 - 0.0 - Mostly clear 10 - - - -
02/08:30pm 21.9 ENE 2 3 1016.6 - 0.0 - Partly cloudy 10 - - - -
02/08:00pm 22.0 CALM 0 0 1016.4 - 0.0 - Partly cloudy 10 - - - -
02/07:30pm 22.4 ENE 3 4 1016.0 - 0.0 - Partly cloudy 10 - - - -
02/07:00pm 22.9 ENE 4 5 1015.8 - 0.0 - Partly cloudy 10 - - - -
02/06:30pm 23.4 NE 4 6 1015.7 - 0.0 - - 10 - - - -
02/06:00pm 24.3 ENE 7 8 1015.5 - 0.0 - - 10 - - - -
02/05:30pm 25.2 ENE 9 13 1015.7 - 0.0 - Partly cloudy 10 - - - -
02/05:00pm 25.7 ENE 10 14 1015.4 - 0.0 - Partly cloudy 10 - - - -
02/04:30pm 25.9 ENE 11 14 1015.1 - 0.0 - - 10 - - - -
02/04:00pm 27.1 ENE 10 14 1015.1 - 0.0 - - 10 - - - -
02/03:30pm 27.0 E 12 15 1015.1 - 0.0 - - 10 - - - -
02/03:00pm 27.2 E 13 17 1015.2 - 0.0 - - 10 - - - -
02/02:30pm 27.6 E 11 16 1015.7 - 0.0 - - 10 - - - -
02/02:00pm 27.6 E 13 16 1016.0 - 0.0 - - 10 - - - -
02/01:30pm 27.8 ENE 12 16 1016.5 - 0.0 - - 10 - - - -
02/01:00pm 27.9 E 11 15 1017.1 - 0.0 - - 10 - - - -
02/12:30pm 27.7 E 11 16 1017.5 - 0.0 - - 10 - - - -
02/12:00pm 27.4 E 10 15 1018.0 - 0.0 - - 10 - - - -
02/11:30am 27.9 ENE 10 15 1018.5 - 0.0 - - 10 - - - -
02/11:00am 27.5 E 8 12 1019.0 - 0.0 - - 10 - - - -
02/10:30am 27.2 E 8 13 1019.2 - 0.0 - Partly cloudy 10 - - - -
02/10:00am 27.2 E 9 12 1019.6 - 0.0 - Partly cloudy 10 - - - -
02/09:30am 26.5 E 9 11 1019.4 - 0.0 - Partly cloudy 10 - - - -
02/09:21am 25.8 E 8 11 1019.4 - 0.0 - Partly cloudy 10 - - - -
02/09:00am 26.9 ENE 9 12 1019.0 R 0.0 Haze Partly cloudy 30 - - - -
02/08:30am 25.2 NNW 2 7 1018.8 - 0.0 - Partly cloudy 10 - - - -
02/08:00am 23.1 CALM 0 0 1018.6 - 0.0 - Partly cloudy 10 - - - -
02/07:46am 22.2 W 2 3 1018.4 - 0.0 - Partly cloudy 10 - - - -
02/07:42am 21.9 W 2 3 1018.4 - 0.0 - Partly cloudy 10 - - - -
02/07:30am 21.8 W 1 4 1018.2 - 0.0 - Partly cloudy 10 - - - -
02/07:08am 20.1 WNW 5 5 1017.9 - 0.0 - Partly cloudy 10 - - - -
02/07:00am 20.0 WNW 3 5 1017.8 - 0.0 - Partly cloudy 10 - - - -
02/06:30am 19.2 WNW 3 4 1017.2 - 0.0 - Partly cloudy 10 - - - -
02/06:17am 19.5 CALM 0 2 1017.0 - 0.0 - Partly cloudy 10 - - - -
02/06:00am 19.3 WNW 4 5 1016.6 - 0.0 - Cloudy 10 - - - -
02/05:55am 19.3 WNW 4 4 1016.6 - 0.0 - Partly cloudy 10 - - - -
02/05:50am 19.4 WNW 3 4 1016.6 - 0.0 - Partly cloudy 10 - - - -
02/05:30am 19.4 WNW 1 3 1016.2 - 0.0 - Partly cloudy 10 - - - -
02/05:00am 18.9 CALM 0 2 1015.7 - 0.0 - Partly cloudy 10 - - - -
02/04:30am 19.1 CALM 0 3 1015.6 - 0.0 - Partly cloudy 10 - - - -
02/04:18am 18.9 NW 1 4 1015.5 - 0.0 - Partly cloudy 10 - - - -
02/04:00am 19.1 CALM 0 0 1015.6 - 0.0 - Partly cloudy 10 - - - -
02/03:42am 19.3 NW 2 6 1015.8 - 0.0 - Partly cloudy 10 - - - -
02/03:30am 19.6 WNW 2 4 1015.8 - 0.0 - Partly cloudy 10 - - - -
02/03:15am 19.6 WNW 4 4 1015.8 - 0.0 - Partly cloudy 10 - - - -
02/03:00am 19.7 WNW 1 4 1015.7 - 0.0 - Partly cloudy 10 - - - -
02/02:33am 19.9 WNW 4 5 1015.8 - 0.0 - Partly cloudy 10 - - - -
02/02:30am 20.0 WNW 3 5 1015.8 - 0.0 - Partly cloudy 10 - - - -
02/02:00am 19.8 W 1 4 1015.8 - 0.0 - Partly cloudy 10 - - - -
02/01:30am 19.5 WNW 3 5 1015.9 - 0.0 - Partly cloudy 10 - - - -
02/01:29am 19.6 WNW 4 5 1015.9 - 0.0 - Partly cloudy 10 - - - -
02/01:00am 19.5 CALM 0 0 1016.1 - 0.0 - Partly cloudy 10 - - - -
02/12:30am 20.0 CALM 0 0 1016.0 - 0.0 - - 10 - - - -
02/12:00am 20.3 WNW 3 3 1016.2 - 0.0 - Mostly clear 10 - - - -
 
Date/Time
EST
Temp

°C
Wind Pressure Rain
since 9am
mm
Weather Cloud Vis
km
Sea
Height
m
Swell
Dir
 
Speed
knots
Gust
knots
hPa Trend Height
m
Period
s
Dir
01/11:30pm 20.4 W 2 4 1016.3 - 0.0 - Partly cloudy 10 - - - -
01/11:00pm 20.2 CALM 0 0 1016.3 - 0.0 - Partly cloudy 10 - - - -
01/10:56pm 20.2 CALM 0 0 1016.3 - 0.0 - Partly cloudy 10 - - - -
01/10:38pm 20.5 WSW 1 3 1016.2 - 0.0 - Partly cloudy 10 - - - -
01/10:30pm 20.9 W 3 4 1016.1 - 0.0 - Partly cloudy 10 - - - -
01/10:08pm 20.5 WNW 2 4 1015.9 - 0.0 - Partly cloudy 10 - - - -
01/10:00pm 20.9 WNW 2 3 1015.9 - 0.0 - Partly cloudy 10 - - - -
01/09:33pm 21.4 CALM 0 0 1015.8 - 0.0 - Partly cloudy 10 - - - -
01/09:30pm 21.8 CALM 0 0 1015.7 - 0.0 - Partly cloudy 10 - - - -
01/09:00pm 22.5 ENE 4 5 1015.3 - 0.0 - Mostly clear 10 - - - -
01/08:30pm 22.6 ENE 4 6 1015.0 - 0.0 - Partly cloudy 10 - - - -
01/08:23pm 22.2 ENE 1 4 1014.9 - 0.0 - Partly cloudy 10 - - - -
01/08:00pm 22.4 ENE 3 5 1014.7 - 0.0 - Partly cloudy 10 - - - -
01/07:54pm 22.5 ENE 3 4 1014.6 - 0.0 - Partly cloudy 10 - - - -
01/07:30pm 22.4 E 4 6 1014.3 - 0.0 - Partly cloudy 10 - - - -
01/07:00pm 22.9 E 6 7 1013.7 - 0.0 - - 10 - - - -
01/06:30pm 23.2 E 6 8 1013.6 - 0.0 - - 10 - - - -
01/06:00pm 24.4 ENE 7 9 1013.5 - 0.0 - - 10 - - - -
01/05:30pm 25.2 ENE 9 12 1013.4 - 0.0 - - 10 - - - -
01/05:00pm 25.6 E 11 14 1013.3 - 0.0 - - 10 - - - -
01/04:30pm 26.7 ENE 10 14 1013.1 - 0.0 - - 10 - - - -
01/04:00pm 26.8 E 12 15 1013.1 - 0.0 - - 10 - - - -
01/03:30pm 26.8 ENE 12 16 1013.1 - 0.0 - - 10 - - - -
01/03:00pm 27.4 ENE 11 17 1013.2 - 0.0 - - 10 - - - -
01/02:30pm 27.4 E 13 17 1013.6 - 0.0 - - 10 - - - -
01/02:00pm 27.6 E 13 18 1014.0 - 0.0 - - 10 - - - -
01/01:30pm 27.9 E 12 16 1014.6 - 0.0 - - 10 - - - -
01/01:00pm 28.6 ENE 12 16 1015.0 - 0.0 - - 10 - - - -
01/12:30pm 27.7 E 11 14 1015.5 - 0.0 - - 10 - - - -
01/12:00pm 27.7 E 11 15 1015.8 - 0.0 - - 10 - - - -
01/11:30am 27.6 E 11 14 1016.5 - 0.0 - - 10 - - - -
01/11:00am 27.4 ENE 9 12 1016.9 - 0.0 - - 10 - - - -
01/10:30am 27.2 E 9 13 1017.2 - 0.0 - - 10 - - - -
01/10:00am 26.8 E 9 12 1017.5 - 0.0 - Partly cloudy 10 - - - -
01/09:30am 25.9 E 8 11 1017.5 - 0.0 - Partly cloudy 10 - - - -
01/09:00am 25.6 E 3 5 1017.0 R 0.0 Fine Mostly clear 40 - - - -
01/08:30am 23.1 CALM 0 0 1017.0 - 0.0 - Partly cloudy 10 - - - -
01/08:00am 21.3 CALM 0 0 1016.7 - 0.0 - - 10 - - - -
01/07:30am 20.4 CALM 0 0 1016.4 - 0.0 - - 10 - - - -
01/07:00am 19.8 W 1 3 1016.1 - 0.0 - Partly cloudy 10 - - - -
01/06:30am 19.6 WNW 3 4 1015.6 - 0.0 - Partly cloudy 10 - - - -
01/06:00am 19.8 CALM 0 0 1015.1 - 0.0 - Cloudy 10 - - - -
01/05:30am 19.7 CALM 0 0 1014.8 - 0.0 - Partly cloudy 10 - - - -
01/05:00am 19.8 WNW 2 4 1014.6 - 0.0 - Partly cloudy 10 - - - -
01/04:30am 19.8 CALM 0 3 1014.3 - 0.0 - Partly cloudy 10 - - - -
01/04:10am 19.5 WNW 2 3 1014.3 - 0.0 - Partly cloudy 10 - - - -
01/04:00am 19.4 WNW 3 4 1014.3 - 0.0 - Partly cloudy 10 - - - -
01/03:48am 19.1 NW 3 3 1014.4 - 0.0 - Partly cloudy 10 - - - -
01/03:44am 19.0 NW 2 3 1014.4 - 0.0 - Partly cloudy 10 - - - -
01/03:30am 19.0 NW 3 4 1014.4 - 0.0 - Partly cloudy 10 - - - -
01/03:19am 19.0 WNW 3 4 1014.5 - 0.0 - Partly cloudy 10 - - - -
01/03:00am 19.0 WNW 3 4 1014.3 - 0.0 - Mostly clear 10 - - - -
01/02:30am 19.5 CALM 0 0 1014.5 - 0.0 - Partly cloudy 10 - - - -
01/02:00am 19.7 CALM 0 0 1014.7 - 0.0 - Partly cloudy 10 - - - -
01/01:46am 19.7 CALM 0 3 1014.8 - 0.0 - Partly cloudy 10 - - - -
01/01:30am 19.5 WNW 3 4 1015.0 - 0.0 - Partly cloudy 10 - - - -
01/01:00am 19.5 CALM 0 0 1015.3 - 0.0 - Partly cloudy 10 - - - -
01/12:30am 19.3 CALM 0 0 1015.3 - 0.0 - Partly cloudy 10 - - - -
01/12:00am 20.1 CALM 0 0 1015.6 - 0.0 - Partly cloudy 10 - - - -
 
Date/Time
EST
Temp

°C
Wind Pressure Rain
since 9am
mm
Weather Cloud Vis
km
Sea
Height
m
Swell
Dir
 
Speed
knots
Gust
knots
hPa Trend Height
m
Period
s
Dir
31/11:30pm 19.9 CALM 0 0 1015.7 - 0.0 - Partly cloudy 10 - - - -
31/11:24pm 20.0 CALM 0 0 1015.8 - 0.0 - Partly cloudy 10 - - - -
31/11:09pm 20.7 CALM 0 0 1015.8 - 0.0 - Partly cloudy 10 - - - -
31/11:03pm 20.8 CALM 0 0 1015.8 - 0.0 - Partly cloudy 10 - - - -
31/11:00pm 20.9 CALM 0 0 1015.7 - 0.0 - Partly cloudy 10 - - - -
31/10:50pm 20.6 CALM 0 0 1015.7 - 0.0 - Partly cloudy 10 - - - -
31/10:40pm 20.8 CALM 0 0 1015.6 - 0.0 - Partly cloudy 10 - - - -
31/10:30pm 21.1 CALM 0 0 1015.6 - 0.0 - Partly cloudy 10 - - - -
31/10:22pm 21.2 CALM 0 0 1015.7 - 0.0 - Partly cloudy 10 - - - -
31/10:00pm 21.6 CALM 0 0 1015.6 - 0.0 - Partly cloudy 10 - - - -
31/09:30pm 22.3 E 3 4 1015.5 - 0.0 - Partly cloudy 10 - - - -
31/09:00pm 22.6 ENE 1 4 1015.3 - 0.0 - Mostly cloudy 10 - - - -
31/08:31pm 22.4 ENE 3 4 1015.0 - 0.0 - Partly cloudy 10 - - - -
31/08:30pm 22.5 ENE 3 4 1015.0 - 0.0 - Partly cloudy 10 - - - -
31/08:14pm 22.3 E 4 6 1014.9 - 0.0 - Partly cloudy 10 - - - -
31/08:00pm 22.4 ENE 3 4 1014.7 - 0.0 - Partly cloudy 10 - - - -
31/07:35pm 22.7 E 5 8 1014.4 - 0.0 - Partly cloudy 10 - - - -
31/07:30pm 22.7 E 5 6 1014.3 - 0.0 - Partly cloudy 10 - - - -
31/07:24pm 22.8 E 5 7 1014.2 - 0.0 - Partly cloudy 10 - - - -
31/07:00pm 23.2 ENE 5 7 1013.9 - 0.0 - Partly cloudy 10 - - - -
31/06:30pm 23.3 E 6 7 1013.6 - 0.0 - Partly cloudy 10 - - - -
31/06:00pm 24.0 E 9 11 1013.3 - 0.0 - - 10 - - - -
31/05:30pm 24.9 ENE 10 13 1013.2 - 0.0 - - 10 - - - -
31/05:00pm 25.6 E 10 13 1013.0 - 0.0 - - 10 - - - -
31/04:30pm 26.1 ENE 10 13 1012.8 - 0.0 - - 10 - - - -
31/04:00pm 26.6 E 11 14 1012.7 - 0.0 - - 10 - - - -
31/03:30pm 26.8 E 10 14 1012.9 - 0.0 - - 10 - - - -
31/03:00pm 27.1 E 12 16 1013.1 - 0.0 - - 10 - - - -

Other Formats:

Comma delimited format used in spreadsheet applications
http://www.bom.gov.au/fwo/IDQ60701/IDQ60701.95283.axf

JavaScript Object Notation format (JSON) in row-major order
http://www.bom.gov.au/fwo/IDQ60701/IDQ60701.95283.json